createdAt,value
2019-06-10T16:48:02.483Z,31.70
2019-06-10T16:50:34.086Z,31.90
2019-06-10T16:53:03.571Z,32.00
2019-06-10T16:55:33.536Z,32.20
2019-06-10T16:58:03.360Z,32.20
2019-06-10T17:00:34.772Z,32.30
2019-06-10T17:03:05.011Z,32.30
2019-06-10T17:05:35.021Z,32.50
2019-06-10T17:08:04.761Z,32.50
2019-06-10T17:10:34.646Z,32.60
2019-06-10T17:13:06.067Z,32.60
2019-06-10T17:15:35.745Z,32.80
2019-06-10T17:18:05.616Z,32.80
2019-06-10T17:20:35.324Z,32.90
2019-06-10T17:23:26.953Z,32.90
2019-06-10T17:25:57.174Z,33.10
2019-06-10T17:28:31.733Z,33.10
2019-06-10T17:30:59.453Z,33.20
2019-06-10T17:33:30.347Z,33.20
2019-06-10T17:36:03.099Z,33.50
2019-06-10T17:38:31.982Z,33.50
2019-06-10T17:41:02.937Z,33.70
2019-06-10T17:43:34.410Z,33.70
2019-06-10T17:46:04.797Z,33.80
2019-06-10T17:48:34.850Z,33.80
2019-06-10T17:51:05.022Z,33.80
2019-06-10T17:53:35.197Z,33.80
2019-06-10T17:56:05.142Z,34.00
2019-06-10T17:58:50.071Z,34.10
2019-06-10T18:01:06.244Z,34.10
2019-06-10T18:03:39.121Z,34.20
2019-06-10T18:06:07.138Z,34.20
2019-06-10T18:08:40.497Z,34.20
2019-06-10T18:11:08.154Z,34.20
2019-06-10T18:13:37.809Z,34.40
2019-06-10T18:16:07.562Z,34.50
2019-06-10T18:18:37.422Z,34.50
2019-06-10T18:21:07.009Z,34.50
2019-06-10T18:23:36.658Z,34.50
2019-06-10T18:26:06.339Z,34.70
2019-06-10T18:28:56.945Z,34.70
2019-06-10T18:31:07.414Z,34.70
2019-06-10T18:33:38.068Z,34.70
2019-06-10T18:36:12.048Z,34.80
2019-06-10T18:38:43.293Z,34.80
2019-06-10T18:41:13.332Z,34.80
2019-06-10T18:43:43.038Z,35.00
2019-06-10T18:46:12.922Z,35.00
2019-06-10T18:48:43.205Z,35.10
2019-06-10T18:51:13.033Z,35.10
2019-06-10T18:53:42.903Z,35.30
2019-06-10T18:56:12.985Z,35.40
2019-06-10T18:58:42.960Z,35.70
2019-06-10T19:01:12.750Z,35.90
2019-06-10T19:03:43.093Z,36.00
2019-06-10T19:06:13.128Z,36.00
2019-06-10T19:08:44.249Z,36.20
2019-06-10T19:11:14.600Z,36.60
2019-06-10T19:13:44.375Z,36.80
2019-06-10T19:16:14.208Z,36.80
2019-06-10T19:18:43.982Z,36.90
2019-06-10T19:21:13.752Z,36.90
2019-06-10T19:23:44.085Z,37.10
2019-06-10T19:26:14.038Z,37.10
2019-06-10T19:28:45.136Z,37.10
2019-06-10T19:31:15.025Z,37.10
2019-06-10T19:33:45.522Z,37.20
2019-06-10T19:36:15.399Z,37.40
2019-06-10T19:38:45.095Z,37.40
2019-06-10T19:41:14.812Z,37.50
2019-06-10T19:43:45.504Z,37.50
2019-06-10T19:46:15.386Z,37.60
2019-06-10T19:48:57.170Z,37.50
2019-06-10T19:51:16.310Z,37.50
2019-06-10T19:53:46.049Z,37.50
2019-06-10T19:56:15.926Z,37.50
2019-06-10T19:58:46.522Z,37.50
2019-06-10T20:01:16.369Z,37.60
2019-06-10T20:03:47.089Z,37.60
2019-06-10T20:06:17.159Z,37.60
2019-06-10T20:08:46.823Z,37.60
2019-06-10T20:11:16.924Z,37.80
2019-06-10T20:13:47.155Z,37.60
2019-06-10T20:16:16.915Z,37.80
2019-06-10T20:18:48.189Z,37.80
2019-06-10T20:21:18.091Z,37.90
2019-06-10T20:23:48.148Z,37.80
2019-06-10T20:26:17.894Z,37.90
2019-06-10T20:28:52.156Z,37.90
2019-06-10T20:31:19.103Z,37.90
2019-06-10T20:33:48.732Z,37.90
2019-06-10T20:36:23.284Z,37.90
2019-06-10T20:38:51.245Z,37.90
2019-06-10T20:41:21.471Z,37.90
2019-06-10T20:43:55.117Z,37.90
2019-06-10T20:46:23.559Z,38.10
2019-06-10T20:48:54.583Z,38.10
2019-06-10T20:51:27.013Z,37.90
2019-06-10T20:53:56.002Z,37.90
2019-06-10T20:56:25.803Z,37.80
2019-06-10T20:58:55.768Z,37.90
2019-06-10T21:01:25.824Z,37.90
2019-06-10T21:03:55.753Z,38.10
2019-06-10T21:06:26.900Z,37.90
2019-06-10T21:08:56.624Z,37.80
2019-06-10T21:11:26.381Z,37.80
2019-06-10T21:13:56.111Z,37.60
2019-06-10T21:16:25.790Z,37.60
2019-06-10T21:18:55.826Z,37.80
2019-06-10T21:21:25.846Z,43.60
2019-06-10T21:23:55.599Z,44.30
2019-06-10T21:26:25.335Z,45.80
2019-06-10T21:28:55.394Z,49.50
2019-06-10T21:31:25.169Z,50.10
2019-06-10T21:33:55.829Z,49.80
2019-06-10T21:36:25.667Z,51.10
2019-06-10T21:38:55.895Z,51.40
2019-06-10T21:41:25.874Z,51.80
2019-06-10T21:43:59.200Z,52.60
2019-06-10T21:46:27.462Z,54.80
2019-06-10T21:48:57.221Z,55.10
2019-06-10T21:51:26.854Z,54.90
2019-06-10T21:53:56.651Z,54.80
2019-06-10T21:56:26.380Z,54.80
2019-06-10T21:58:56.143Z,55.10
2019-06-10T22:01:26.024Z,55.10
2019-06-10T22:04:00.827Z,54.80
2019-06-10T22:06:27.414Z,55.10
2019-06-10T22:08:57.177Z,55.40
2019-06-10T22:11:26.943Z,55.50
2019-06-10T22:13:56.594Z,55.80
2019-06-10T22:16:26.727Z,56.10
2019-06-10T22:18:56.900Z,56.30
2019-06-10T22:21:28.115Z,55.70
2019-06-10T22:24:02.020Z,56.30
2019-06-10T22:26:36.197Z,54.80
2019-06-10T22:29:08.433Z,53.20
2019-06-10T22:31:42.866Z,52.30
2019-06-10T22:34:14.991Z,51.20
2019-06-10T22:36:47.931Z,50.50
2019-06-10T22:39:19.589Z,49.60
2019-06-10T22:41:53.658Z,49.00
2019-06-10T22:44:24.343Z,48.60
2019-06-10T22:46:55.305Z,47.80
2019-06-10T22:49:25.726Z,47.30
2019-06-10T22:51:58.275Z,47.10
2019-06-10T22:54:27.314Z,46.80
2019-06-10T22:56:58.369Z,46.40
2019-06-10T22:59:29.001Z,46.10
2019-06-10T23:02:00.170Z,45.80
2019-06-10T23:04:32.957Z,45.60
2019-06-10T23:07:03.042Z,45.30
2019-06-10T23:09:33.537Z,45.60
2019-06-10T23:12:03.561Z,45.20
2019-06-10T23:14:33.707Z,44.90
2019-06-10T23:17:03.783Z,44.70
2019-06-10T23:19:33.903Z,44.40
2019-06-10T23:22:04.373Z,44.10
2019-06-10T23:24:34.025Z,44.00
2019-06-10T23:27:03.839Z,44.10
2019-06-10T23:29:33.620Z,43.90
2019-06-10T23:32:06.880Z,43.90
2019-06-10T23:34:34.851Z,43.90
2019-06-10T23:37:04.619Z,43.90
2019-06-10T23:39:34.279Z,43.60
2019-06-10T23:42:04.872Z,43.60
2019-06-10T23:44:34.918Z,43.40
2019-06-10T23:47:04.888Z,43.40
2019-06-10T23:49:34.622Z,43.30
2019-06-10T23:52:05.469Z,43.30
2019-06-10T23:54:35.490Z,43.30
2019-06-10T23:57:06.259Z,43.40
2019-06-10T23:59:36.115Z,43.40
